createdAt,value
2019-04-03T00:04:20.763Z,3.25
2019-04-03T00:10:24.986Z,3.40
2019-04-03T00:16:29.364Z,4.47
2019-04-03T00:22:33.675Z,3.72
2019-04-03T00:28:38.107Z,4.53
2019-04-03T00:34:42.427Z,4.15
2019-04-03T00:40:47.092Z,3.77
2019-04-03T00:46:51.419Z,3.60
2019-04-03T00:52:57.381Z,3.80
2019-04-03T00:59:01.746Z,3.75
2019-04-03T01:05:06.218Z,3.58
2019-04-03T01:11:10.598Z,3.45
2019-04-03T01:17:14.936Z,2.50
2019-04-03T01:23:19.309Z,4.87
2019-04-03T01:29:23.504Z,5.25
2019-04-03T01:35:27.690Z,3.85
2019-04-03T01:41:31.883Z,3.95
2019-04-03T01:47:36.492Z,5.17
2019-04-03T01:53:40.791Z,5.33
2019-04-03T01:59:45.053Z,5.67
2019-04-03T02:05:49.239Z,6.83
2019-04-03T02:11:53.427Z,6.40
2019-04-03T02:17:57.624Z,7.37
2019-04-03T02:24:02.243Z,5.58
2019-04-03T02:30:07.418Z,6.10
2019-04-03T02:36:12.894Z,6.30
2019-04-03T02:42:17.549Z,6.40
2019-04-03T02:48:22.958Z,5.75
2019-04-03T02:54:34.610Z,6.15
2019-04-03T03:00:36.818Z,5.78
2019-04-03T03:06:41.089Z,5.95
2019-04-03T03:12:45.733Z,5.75
2019-04-03T03:18:50.353Z,6.20
2019-04-03T03:24:55.479Z,6.78
2019-04-03T03:31:04.024Z,8.57
2019-04-03T03:37:06.053Z,25.57
2019-04-03T03:43:11.066Z,21.50
2019-04-03T03:49:17.205Z,13.97
2019-04-03T03:55:24.345Z,13.17
2019-04-03T04:01:30.806Z,9.70
2019-04-03T04:07:37.763Z,16.57
2019-04-03T04:13:40.659Z,14.30
2019-04-03T04:19:45.847Z,11.40
2019-04-03T04:25:50.559Z,6.37
2019-04-03T04:31:54.786Z,6.33
2019-04-03T04:37:59.136Z,6.60
2019-04-03T04:44:03.322Z,9.20
2019-04-03T04:50:07.604Z,9.87
2019-04-03T04:56:11.887Z,10.87
2019-04-03T05:02:17.908Z,11.50
2019-04-03T05:08:22.243Z,11.23
2019-04-03T05:14:26.702Z,9.80
2019-04-03T05:20:30.928Z,10.93
2019-04-03T05:26:35.261Z,10.87
2019-04-03T05:32:41.154Z,11.03
2019-04-03T05:38:45.423Z,10.47
2019-04-03T05:44:49.655Z,11.40
2019-04-03T05:50:53.832Z,11.53
2019-04-03T05:56:58.115Z,10.93
2019-04-03T06:03:02.468Z,9.58
2019-04-03T06:09:07.568Z,13.68
2019-04-03T06:15:11.905Z,13.33
2019-04-03T06:21:16.291Z,24.97
2019-04-03T06:27:20.593Z,10.90
2019-04-03T06:33:24.922Z,9.38
2019-04-03T06:39:31.600Z,10.05
2019-04-03T06:45:35.439Z,7.60
2019-04-03T06:51:39.676Z,6.70
2019-04-03T06:57:44.050Z,6.45
2019-04-03T07:03:48.387Z,6.47
2019-04-03T07:09:52.761Z,4.20
2019-04-03T07:15:57.227Z,4.47
2019-04-03T07:22:01.513Z,3.52
2019-04-03T07:28:08.381Z,3.02
2019-04-03T07:34:11.915Z,2.42
2019-04-03T07:40:16.620Z,2.50
2019-04-03T07:46:21.120Z,2.20
2019-04-03T07:52:25.422Z,1.80
2019-04-03T07:58:31.863Z,1.70
2019-04-03T08:04:35.824Z,1.55
2019-04-03T08:10:40.011Z,1.80
2019-04-03T08:16:45.959Z,1.30
2019-04-03T08:22:50.243Z,1.70
2019-04-03T08:28:54.763Z,2.27
2019-04-03T08:35:02.111Z,1.70
2019-04-03T08:41:05.243Z,1.87
2019-04-03T08:47:09.722Z,2.10
2019-04-03T08:53:14.206Z,1.80
2019-04-03T08:59:18.518Z,2.17
2019-04-03T09:05:22.776Z,1.35
2019-04-03T09:11:27.086Z,1.60
2019-04-03T09:17:33.553Z,1.30
2019-04-03T09:23:37.159Z,3.02
2019-04-03T09:29:42.987Z,1.98
2019-04-03T09:35:47.269Z,1.80
2019-04-03T09:41:51.505Z,1.85
2019-04-03T09:47:55.765Z,1.87
2019-04-03T09:54:00.116Z,1.12
2019-04-03T10:00:06.322Z,1.50
2019-04-03T10:06:10.744Z,1.07
2019-04-03T10:12:15.014Z,0.90
2019-04-03T10:18:21.914Z,1.00
2019-04-03T10:24:25.485Z,1.27
2019-04-03T10:30:30.008Z,1.15
2019-04-03T10:36:34.216Z,1.50
2019-04-03T10:42:38.569Z,1.50
2019-04-03T10:48:42.810Z,1.75
2019-04-03T10:54:47.217Z,1.30
2019-04-03T11:00:51.551Z,1.20
2019-04-03T11:06:55.868Z,1.70
2019-04-03T11:13:03.844Z,1.45
2019-04-03T11:19:08.250Z,1.40
2019-04-03T11:25:15.367Z,1.45
2019-04-03T11:31:25.895Z,1.90
2019-04-03T11:37:25.070Z,1.22
2019-04-03T11:43:31.013Z,1.20
2019-04-03T11:49:35.614Z,1.42
2019-04-03T11:55:41.728Z,1.20
2019-04-03T12:01:45.841Z,1.10
2019-04-03T12:07:50.132Z,1.27
2019-04-03T12:13:54.504Z,0.90
2019-04-03T12:19:58.822Z,0.95
2019-04-03T12:26:03.525Z,0.95
2019-04-03T12:32:09.248Z,1.20
2019-04-03T12:38:14.045Z,1.00
2019-04-03T12:44:19.328Z,1.00
2019-04-03T12:50:26.825Z,1.47
2019-04-03T12:56:30.958Z,1.07
2019-04-03T13:02:35.290Z,1.02
2019-04-03T13:08:39.680Z,0.80
2019-04-03T13:14:44.021Z,0.80
2019-04-03T13:20:48.730Z,0.80
2019-04-03T13:26:53.141Z,1.20
2019-04-03T13:33:01.244Z,1.05
2019-04-03T13:39:05.448Z,1.00
2019-04-03T13:45:10.445Z,1.45
2019-04-03T13:51:15.107Z,1.10
2019-04-03T13:57:19.467Z,1.27
2019-04-03T14:03:23.762Z,1.20
2019-04-03T14:09:28.227Z,1.25
2019-04-03T14:15:32.507Z,1.37
2019-04-03T14:21:36.970Z,1.60
2019-04-03T14:27:41.256Z,1.35
2019-04-03T14:33:46.924Z,1.50
2019-04-03T14:39:51.388Z,1.67
2019-04-03T14:45:56.271Z,1.65
2019-04-03T14:52:01.011Z,1.82
2019-04-03T14:58:05.494Z,1.60
2019-04-03T15:04:09.822Z,1.22
2019-04-03T15:10:14.307Z,1.10
2019-04-03T15:16:18.936Z,1.42
2019-04-03T15:22:23.560Z,1.50
2019-04-03T15:28:29.715Z,1.62
2019-04-03T15:34:34.029Z,1.90
2019-04-03T15:40:38.491Z,2.33
2019-04-03T15:46:42.759Z,4.25
2019-04-03T15:52:49.383Z,2.50
2019-04-03T15:58:53.156Z,2.52
2019-04-03T16:04:59.463Z,2.00
2019-04-03T16:11:03.629Z,2.00
2019-04-03T16:17:08.012Z,2.12
2019-04-03T16:23:12.790Z,2.27
2019-04-03T16:29:17.509Z,1.30
2019-04-03T16:35:21.985Z,2.50
2019-04-03T16:41:26.528Z,6.90
2019-04-03T16:47:33.595Z,5.28
2019-04-03T16:53:38.546Z,3.10
2019-04-03T16:59:43.830Z,3.60
2019-04-03T17:05:48.211Z,4.15
2019-04-03T17:11:52.533Z,2.60
2019-04-03T17:17:56.992Z,2.52
2019-04-03T17:24:01.758Z,2.05
2019-04-03T17:30:07.106Z,3.50
2019-04-03T17:36:11.785Z,3.85
2019-04-03T17:42:16.045Z,2.80
2019-04-03T17:48:20.332Z,3.15
2019-04-03T17:54:24.689Z,3.15
2019-04-03T18:00:28.999Z,8.65
2019-04-03T18:06:33.203Z,16.60
2019-04-03T18:12:37.443Z,4.28
2019-04-03T18:18:41.733Z,25.27
2019-04-03T18:24:45.969Z,28.77
2019-04-03T18:30:50.499Z,17.67
2019-04-03T18:36:54.765Z,6.50
2019-04-03T18:42:58.970Z,6.05
2019-04-03T18:49:03.183Z,6.50
2019-04-03T18:55:07.892Z,6.90
2019-04-03T19:01:12.265Z,7.75
2019-04-03T19:07:16.453Z,6.67
2019-04-03T19:13:20.734Z,8.80
2019-04-03T19:19:25.859Z,9.13
2019-04-03T19:25:30.318Z,8.98
2019-04-03T19:31:34.529Z,12.58
2019-04-03T19:37:38.838Z,10.53
2019-04-03T19:43:44.029Z,9.58
2019-04-03T19:49:49.411Z,9.90
2019-04-03T19:55:54.843Z,10.75
2019-04-03T20:01:59.784Z,16.77
2019-04-03T20:08:04.099Z,11.50
2019-04-03T20:14:11.308Z,31.27
2019-04-03T20:20:14.832Z,24.12
2019-04-03T20:26:19.148Z,19.17
2019-04-03T20:32:23.696Z,17.00
2019-04-03T20:38:27.974Z,18.87
2019-04-03T20:44:32.312Z,13.03
2019-04-03T20:50:38.014Z,13.93
2019-04-03T20:56:42.769Z,12.80
2019-04-03T21:02:47.114Z,14.20
2019-04-03T21:08:51.417Z,13.97
2019-04-03T21:15:07.815Z,13.63
2019-04-03T21:21:01.833Z,13.03
2019-04-03T21:27:06.873Z,13.03
2019-04-03T21:33:11.979Z,14.13
2019-04-03T21:39:16.276Z,14.27
2019-04-03T21:45:20.496Z,14.83
2019-04-03T21:51:24.715Z,14.60
2019-04-03T21:57:28.950Z,14.27
2019-04-03T22:03:33.277Z,15.17
2019-04-03T22:09:37.560Z,15.43
2019-04-03T22:15:41.901Z,15.23
2019-04-03T22:21:46.167Z,14.30
2019-04-03T22:27:50.367Z,14.97
2019-04-03T22:33:54.587Z,12.40
2019-04-03T22:39:58.835Z,15.83
2019-04-03T22:46:03.495Z,12.20
2019-04-03T22:52:08.799Z,12.40
2019-04-03T22:58:13.597Z,12.33
2019-04-03T23:04:17.879Z,10.13
2019-04-03T23:10:22.071Z,9.50
2019-04-03T23:16:26.483Z,9.73
2019-04-03T23:22:30.695Z,10.20
2019-04-03T23:28:34.945Z,9.83
2019-04-03T23:34:39.293Z,10.10
2019-04-03T23:40:43.509Z,9.70
2019-04-03T23:46:47.795Z,9.50
2019-04-03T23:52:54.668Z,8.60
2019-04-03T23:58:58.851Z,9.20
